Time;durP1;ratioP1;P1;durP2;ratioP2;P2;SDS_P1;SDS_P2;PMS_P1;PMS_P2;Temp;Humidity;BMP_temperature;BMP_pressure;BME280_temperature;BME280_humidity;BME280_pressure;Samples;Min_cycle;Max_cycle;Signal;HPM_P1;HPM_P2
2023/06/28 00:01:54;;;;;;;8.60;2.10;;;;;;;13.10;84.52;98860.16;270901;1266;22165;-87
2023/06/28 00:07:57;;;;;;;8.20;1.60;;;;;;;13.05;84.65;98861.98;272484;1265;22330;-86
2023/06/28 00:13:59;;;;;;;5.70;1.30;;;;;;;13.00;85.03;98862.13;270126;1266;22190;-86
2023/06/28 00:20:06;;;;;;;4.70;1.50;;;;;;;12.99;85.56;98865.73;269913;1256;22605;-86
2023/06/28 00:26:09;;;;;;;4.10;1.70;;;;;;;12.98;85.86;98864.92;270617;1261;22685;-86
2023/06/28 00:32:11;;;;;;;6.50;1.50;;;;;;;13.00;86.26;98865.10;269907;1266;24244;-86
2023/06/28 00:38:14;;;;;;;3.30;1.50;;;;;;;12.95;86.08;98864.84;269930;1266;23250;-86
2023/06/28 00:44:17;;;;;;;4.20;1.50;;;;;;;12.98;86.58;98861.55;270155;1266;22598;-86
2023/06/28 00:50:19;;;;;;;4.80;2.00;;;;;;;12.99;86.67;98858.73;270558;1257;22529;-86
2023/06/28 00:56:21;;;;;;;4.30;2.20;;;;;;;12.98;86.95;98853.70;269922;1262;22540;-86
2023/06/28 01:02:25;;;;;;;6.30;2.60;;;;;;;12.95;87.12;98848.69;270817;1263;22556;-85
2023/06/28 01:08:28;;;;;;;6.30;3.30;;;;;;;12.92;87.86;98854.17;273555;1266;22340;-86
2023/06/28 01:14:30;;;;;;;7.80;1.70;;;;;;;12.88;88.07;98853.23;273799;1266;22436;-86
2023/06/28 01:20:32;;;;;;;6.80;2.20;;;;;;;12.83;87.70;98846.41;273757;1266;22410;-86
2023/06/28 01:26:34;;;;;;;7.20;2.50;;;;;;;12.67;87.16;98839.42;273825;1266;22372;-86
2023/06/28 01:32:35;;;;;;;13.50;4.00;;;;;;;12.54;87.46;98839.58;273777;1251;23049;-86
2023/06/28 01:38:38;;;;;;;9.00;2.80;;;;;;;12.49;87.91;98831.98;273867;1266;22943;-85
2023/06/28 01:44:40;;;;;;;7.50;2.60;;;;;;;12.47;87.99;98832.66;273732;1266;23010;-86
2023/06/28 01:50:41;;;;;;;6.40;1.90;;;;;;;12.43;88.22;98837.14;273880;1253;22408;-86
2023/06/28 01:56:43;;;;;;;2.70;1.70;;;;;;;12.36;88.68;98842.70;272536;1266;23124;-85
2023/06/28 02:02:45;;;;;;;5.00;1.70;;;;;;;12.30;89.37;98842.45;270646;1266;22636;-85
2023/06/28 02:08:47;;;;;;;3.30;1.70;;;;;;;12.24;89.70;98843.00;272916;1266;22236;-85
2023/06/28 02:14:52;;;;;;;4.10;1.90;;;;;;;12.14;89.91;98839.36;273675;1266;22812;-86
2023/06/28 02:20:54;;;;;;;4.10;1.90;;;;;;;12.04;90.07;98830.17;273766;1266;22950;-85
2023/06/28 02:26:56;;;;;;;4.20;2.10;;;;;;;12.02;90.69;98834.23;273815;1266;23884;-85
2023/06/28 02:32:57;;;;;;;3.20;2.20;;;;;;;12.02;90.58;98834.23;273836;1267;22376;-85
2023/06/28 02:39:50;;;;;;;4.60;2.10;;;;;;;11.97;90.31;98835.40;273950;1266;23326;-85
2023/06/28 02:47:08;;;;;;;4.10;2.20;;;;;;;11.90;91.11;98834.98;274215;1273;22267;-86
2023/06/28 02:54:19;;;;;;;4.30;2.20;;;;;;;11.93;91.87;98832.24;274155;1272;22304;-86
2023/06/28 03:01:37;;;;;;;5.70;2.10;;;;;;;12.04;92.70;98833.37;272420;1285;22982;-85
2023/06/28 03:23:19;;;;;;;4.40;2.00;;;;;;;12.16;93.31;98836.30;269526;1278;24061;-86
2023/06/28 03:29:21;;;;;;;8.80;3.00;;;;;;;12.20;93.03;98837.96;268083;1273;22589;-85
2023/06/28 03:36:08;;;;;;;10.00;2.90;;;;;;;12.27;93.08;98832.88;269278;1272;22578;-86
2023/06/28 03:44:16;;;;;;;5.50;2.30;;;;;;;12.31;93.07;98836.73;269933;1273;22599;-86
2023/06/28 04:07:10;;;;;;;5.20;2.60;;;;;;;12.62;92.98;98837.08;270875;1286;22373;-86
2023/06/28 04:14:00;;;;;;;6.50;2.40;;;;;;;12.76;93.12;98837.16;271537;1280;23076;-86
2023/06/28 04:28:59;;;;;;;9.30;1.80;;;;;;;13.02;93.35;98842.73;272229;1284;22259;-87
2023/06/28 04:36:41;;;;;;;3.80;2.00;;;;;;;13.12;93.26;98842.56;271031;1290;22460;-86
2023/06/28 04:44:31;;;;;;;7.60;2.30;;;;;;;13.22;92.93;98844.36;270634;1290;22188;-87
2023/06/28 05:06:32;;;;;;;4.40;1.90;;;;;;;13.67;92.04;98853.11;268956;1286;22748;-86
2023/06/28 05:13:46;;;;;;;5.50;1.70;;;;;;;13.79;92.12;98854.16;269666;1274;22787;-86
2023/06/28 05:21:42;;;;;;;3.90;2.00;;;;;;;13.87;91.67;98853.20;272091;1283;22282;-85
2023/06/28 05:29:48;;;;;;;5.60;1.50;;;;;;;14.01;91.07;98851.95;273316;1273;22386;-85
2023/06/28 05:37:19;;;;;;;2.80;1.60;;;;;;;14.39;91.11;98843.26;271617;1281;22269;-86
2023/06/28 05:51:55;;;;;;;4.10;1.70;;;;;;;15.13;90.56;98845.20;271139;1287;24304;-86
2023/06/28 05:59:17;;;;;;;7.90;1.90;;;;;;;15.27;89.99;98845.67;265559;1305;546251;-86
2023/06/28 06:05:20;;;;;;;6.00;1.90;;;;;;;15.30;89.94;98853.30;270497;1262;22541;-86
2023/06/28 06:11:22;;;;;;;4.60;1.70;;;;;;;15.32;89.80;98857.84;262116;1270;10201263;-86
2023/06/28 06:17:27;;;;;;;7.00;1.40;;;;;;;15.33;90.24;98852.55;271668;1267;27629;-86
2023/06/28 06:23:29;;;;;;;8.20;2.00;;;;;;;15.40;89.95;98852.34;271525;1269;23375;-86
2023/06/28 06:29:30;;;;;;;8.00;1.90;;;;;;;15.48;89.34;98851.71;272642;1270;22207;-87
2023/06/28 06:35:32;;;;;;;4.80;1.70;;;;;;;15.53;88.73;98852.20;272245;1270;22199;-87
2023/06/28 06:41:34;;;;;;;4.10;1.70;;;;;;;15.61;88.84;98851.64;270600;1267;22403;-86
2023/06/28 06:47:37;;;;;;;7.40;1.70;;;;;;;15.77;88.69;98844.61;272410;1270;22566;-86
2023/06/28 06:53:39;;;;;;;5.70;1.70;;;;;;;16.10;88.60;98841.96;270591;1261;22192;-87
2023/06/28 06:59:40;;;;;;;5.10;1.60;;;;;;;16.49;87.77;98838.11;272123;1270;23920;-86
2023/06/28 07:05:48;;;;;;;2.90;1.60;;;;;;;16.97;87.03;98836.79;269905;1264;24531;-87
2023/06/28 07:11:50;;;;;;;4.80;2.20;;;;;;;17.72;86.69;98830.84;269495;1270;22688;-86
2023/06/28 07:17:53;;;;;;;5.40;1.90;;;;;;;18.41;85.20;98828.32;269464;1272;23275;-87
2023/06/28 07:23:59;;;;;;;3.70;1.60;;;;;;;18.88;83.26;98834.35;271775;1272;22390;-87
2023/06/28 07:30:01;;;;;;;3.40;1.70;;;;;;;18.81;81.73;98840.71;272585;1271;22494;-86
2023/06/28 07:36:03;;;;;;;3.70;1.30;;;;;;;18.56;81.65;98837.83;272740;1270;22589;-88
2023/06/28 07:42:06;;;;;;;4.10;1.80;;;;;;;18.26;81.95;98830.42;272730;1271;22422;-88
2023/06/28 07:48:08;;;;;;;4.90;1.30;;;;;;;18.10;82.07;98825.45;272577;1271;23749;-87
2023/06/28 07:54:10;;;;;;;4.10;1.80;;;;;;;18.31;81.53;98820.17;272678;1272;22394;-90
2023/06/28 08:00:13;;;;;;;4.40;2.20;;;;;;;18.54;80.87;98824.32;272756;1272;22531;-87
2023/06/28 08:06:15;;;;;;;3.10;1.60;;;;;;;18.68;80.74;98831.82;272711;1270;23258;-88
2023/06/28 08:12:16;;;;;;;3.00;1.70;;;;;;;18.63;80.29;98828.94;272759;1270;22417;-86
2023/06/28 08:18:18;;;;;;;2.10;1.50;;;;;;;18.79;79.71;98817.37;272861;1271;22380;-88
2023/06/28 08:24:22;;;;;;;7.70;2.20;;;;;;;19.10;79.28;98811.62;272775;1272;22228;-87
2023/06/28 08:30:24;;;;;;;5.10;2.10;;;;;;;19.26;78.90;98799.63;272626;1271;22675;-87
2023/06/28 08:36:27;;;;;;;6.50;2.10;;;;;;;19.29;78.25;98792.26;272796;1271;22435;-87
2023/06/28 08:42:32;;;;;;;5.90;1.70;;;;;;;19.42;78.41;98784.42;272619;1271;23497;-87
2023/06/28 08:48:34;;;;;;;3.70;2.60;;;;;;;19.48;77.41;98784.36;272618;1271;22528;-87
2023/06/28 08:54:37;;;;;;;4.10;1.90;;;;;;;19.37;76.34;98779.41;272816;1271;22572;-88
2023/06/28 09:00:42;;;;;;;4.00;1.50;;;;;;;19.38;75.32;98776.06;272276;1271;22276;-87
2023/06/28 09:06:44;;;;;;;6.50;1.90;;;;;;;19.27;75.26;98772.96;272179;1270;23687;-88
2023/06/28 09:12:47;;;;;;;2.80;1.40;;;;;;;18.91;74.15;98773.50;269441;1271;22564;-88
2023/06/28 09:18:50;;;;;;;4.10;1.50;;;;;;;18.56;74.26;98772.00;270857;1266;22530;-87
2023/06/28 09:24:51;;;;;;;3.80;1.50;;;;;;;18.40;75.13;98762.88;270215;1267;24466;-87
2023/06/28 09:30:56;;;;;;;4.10;1.50;;;;;;;18.87;76.04;98751.73;272230;1252;22624;-87
2023/06/28 09:36:58;;;;;;;4.80;1.30;;;;;;;19.71;74.64;98737.98;271892;1266;22396;-88
2023/06/28 09:43:03;;;;;;;5.20;1.70;;;;;;;20.39;73.58;98729.36;273391;1256;22258;-86
2023/06/28 09:49:05;;;;;;;5.20;1.40;;;;;;;21.12;72.52;98726.27;273225;1267;22495;-86
2023/06/28 09:55:07;;;;;;;4.10;1.20;;;;;;;21.78;70.56;98720.02;269971;1265;22904;-88
2023/06/28 10:01:09;;;;;;;3.70;1.30;;;;;;;22.12;69.62;98716.14;269755;1263;26619;-86
2023/06/28 10:07:12;;;;;;;3.90;1.60;;;;;;;22.18;66.93;98709.70;270584;1255;23136;-87
2023/06/28 10:13:21;;;;;;;5.80;1.30;;;;;;;22.14;65.56;98702.86;270609;1266;23217;-88
2023/06/28 10:19:23;;;;;;;3.10;1.00;;;;;;;22.54;63.47;98699.45;273440;1266;22498;-86
2023/06/28 10:25:26;;;;;;;8.50;1.60;;;;;;;23.00;61.02;98706.01;273580;1266;22466;-87
2023/06/28 10:31:27;;;;;;;4.20;1.60;;;;;;;23.35;60.06;98702.16;273098;1266;22250;-87
2023/06/28 10:37:29;;;;;;;4.50;1.00;;;;;;;23.20;58.31;98697.32;270087;1267;22604;-87
2023/06/28 10:43:31;;;;;;;11.90;1.60;;;;;;;22.07;57.53;98722.72;270259;1266;22585;-85
2023/06/28 10:49:33;;;;;;;5.20;0.90;;;;;;;19.96;59.30;98758.16;271903;1257;22255;-86
2023/06/28 10:56:11;;;;;;;2.10;0.80;;;;;;;18.32;62.04;98779.81;273453;1254;22428;-86
2023/06/28 11:02:13;;;;;;;3.80;1.00;;;;;;;17.58;64.34;98781.70;271279;1266;22592;-86
2023/06/28 11:08:16;;;;;;;2.10;1.10;;;;;;;17.36;65.97;98777.38;270550;1266;22588;-87
2023/06/28 11:14:28;;;;;;;6.60;1.40;;;;;;;17.27;66.23;98779.45;270355;1266;22987;-86
2023/06/28 11:20:32;;;;;;;5.10;2.10;;;;;;;17.34;67.07;98774.95;270807;1259;22498;-86
2023/06/28 11:26:36;;;;;;;3.20;1.50;;;;;;;17.54;67.73;98768.49;270677;1266;22639;-88
2023/06/28 11:32:41;;;;;;;6.00;1.60;;;;;;;17.80;67.32;98758.36;272849;1265;22216;-86
2023/06/28 11:38:45;;;;;;;3.00;1.60;;;;;;;18.53;68.04;98746.39;273962;1268;22217;-87
2023/06/28 11:44:50;;;;;;;2.40;1.10;;;;;;;19.88;68.35;98734.69;273874;1264;23143;-86
2023/06/28 11:51:16;;;;;;;5.90;2.20;;;;;;;20.81;65.22;98732.11;272700;1266;23044;-86
2023/06/28 11:57:17;;;;;;;5.00;1.10;;;;;;;21.27;62.02;98732.07;272185;1254;22540;-87
2023/06/28 12:03:55;;;;;;;2.60;0.90;;;;;;;21.31;60.72;98722.64;270860;1267;22513;-86
2023/06/28 12:10:05;;;;;;;5.10;1.10;;;;;;;21.05;59.42;98722.07;271257;1266;22560;-87
2023/06/28 12:16:16;;;;;;;5.90;1.40;;;;;;;20.44;58.94;98742.71;273567;1256;23168;-86
2023/06/28 12:22:37;;;;;;;5.80;1.00;;;;;;;19.49;58.27;98758.67;273728;1266;22428;-88
2023/06/28 12:28:50;;;;;;;4.20;1.00;;;;;;;18.84;58.32;98755.29;271178;1266;23412;-86
2023/06/28 12:34:52;;;;;;;6.10;1.30;;;;;;;18.64;59.10;98756.68;270788;1263;22636;-86
2023/06/28 12:40:54;;;;;;;3.50;1.20;;;;;;;18.57;60.44;98758.67;270579;1258;22535;-86
2023/06/28 12:47:20;;;;;;;2.30;1.10;;;;;;;18.56;60.93;98763.05;270593;1266;23108;-87
2023/06/28 12:53:22;;;;;;;2.90;0.90;;;;;;;18.48;60.85;98762.77;271749;1266;22127;-87
2023/06/28 12:59:24;;;;;;;3.60;1.10;;;;;;;18.52;61.04;98754.83;273736;1264;22218;-86
2023/06/28 13:05:48;;;;;;;4.40;1.40;;;;;;;18.73;61.56;98739.73;274039;1269;22988;-86
2023/06/28 13:11:50;;;;;;;2.90;1.10;;;;;;;19.06;61.75;98729.43;273858;1265;22963;-87
2023/06/28 13:17:52;;;;;;;4.10;1.30;;;;;;;19.44;62.91;98720.45;273030;1265;22368;-85
2023/06/28 13:23:53;;;;;;;3.90;1.30;;;;;;;19.74;61.94;98723.08;274154;1268;22211;-86
2023/06/28 13:30:17;;;;;;;6.80;1.60;;;;;;;19.68;61.65;98727.23;273953;1262;22936;-87
2023/06/28 13:36:20;;;;;;;2.90;1.40;;;;;;;19.60;62.14;98724.27;273519;1266;23467;-86
2023/06/28 13:42:24;;;;;;;5.30;1.30;;;;;;;19.63;62.69;98721.64;272456;1267;22218;-86
2023/06/28 13:49:56;;;;;;;;;;;;;;;;;;;;;
2023/06/28 13:56:30;;;;;;;6.30;1.20;;;;;;;20.07;62.72;98710.92;270823;1267;22562;-87
2023/06/28 14:10:45;;;;;;;;;;;;;;;;;;;;;
2023/06/28 14:16:50;;;;;;;2.90;1.10;;;;;;;20.45;61.16;98706.06;273101;1266;22820;-87
2023/06/28 14:55:11;;;;;;;9.50;1.60;;;;;;;20.12;57.12;98747.76;273967;1268;22192;-85
2023/06/28 15:02:00;;;;;;;5.10;1.40;;;;;;;19.72;57.15;98759.30;272921;1264;22535;-86
2023/06/28 15:08:02;;;;;;;7.50;2.10;;;;;;;19.35;57.57;98782.96;273918;1270;22382;-87
2023/06/28 15:15:18;;;;;;;;;;;;;;;;;;;;;
2023/06/28 15:21:52;;;;;;;3.00;1.20;;;;;;;18.56;58.76;98803.20;273674;1260;22188;-86
2023/06/28 15:27:54;;;;;;;3.60;1.30;;;;;;;18.43;59.43;98810.01;274454;1266;22210;-86
2023/06/28 15:33:57;;;;;;;2.90;1.10;;;;;;;18.17;59.58;98815.33;274272;1269;22197;-85
2023/06/28 15:39:58;;;;;;;6.70;1.90;;;;;;;17.93;59.75;98814.12;271836;1253;23728;-87
2023/06/28 15:46:00;;;;;;;3.10;1.00;;;;;;;17.77;60.57;98820.40;270799;1254;22585;-86
2023/06/28 15:52:02;;;;;;;3.70;1.50;;;;;;;17.69;61.04;98828.30;270897;1263;22519;-85
2023/06/28 15:58:10;;;;;;;4.80;1.00;;;;;;;17.59;61.54;98835.61;271043;1266;22559;-87
2023/06/28 16:04:14;;;;;;;3.40;1.50;;;;;;;17.45;62.38;98840.93;270508;1266;22603;-86
2023/06/28 16:10:16;;;;;;;5.40;1.40;;;;;;;17.25;62.96;98841.43;270152;1267;22503;-86
2023/06/28 16:16:18;;;;;;;3.20;1.60;;;;;;;17.05;63.82;98849.15;270285;1252;22525;-87
2023/06/28 16:22:20;;;;;;;7.20;1.40;;;;;;;16.87;64.56;98854.20;270108;1257;22594;-86
2023/06/28 16:28:21;;;;;;;5.60;1.70;;;;;;;16.77;65.40;98854.27;270216;1260;22551;-84
2023/06/28 16:34:23;;;;;;;4.60;1.50;;;;;;;16.69;66.12;98853.92;270298;1267;22540;-85
2023/06/28 16:40:24;;;;;;;6.20;1.70;;;;;;;16.61;66.85;98859.98;271165;1255;23115;-85
2023/06/28 16:46:26;;;;;;;6.60;2.00;;;;;;;16.50;67.99;98866.52;270981;1254;24980;-85
2023/06/28 16:52:28;;;;;;;4.80;1.80;;;;;;;16.30;69.37;98874.59;272994;1268;22477;-86
2023/06/28 16:58:30;;;;;;;6.70;1.80;;;;;;;16.10;70.44;98879.36;265667;1263;10001294;-86
2023/06/28 17:04:31;;;;;;;5.30;2.50;;;;;;;15.97;71.76;98884.66;271248;1257;25179;-85
2023/06/28 17:10:33;;;;;;;3.80;1.60;;;;;;;15.82;72.79;98891.15;270915;1268;22330;-85
2023/06/28 17:16:35;;;;;;;4.70;2.10;;;;;;;15.58;74.39;98893.23;271159;1268;22562;-86
2023/06/28 17:22:38;;;;;;;4.80;1.80;;;;;;;15.45;75.83;98896.98;272496;1268;22538;-86
2023/06/28 17:28:40;;;;;;;5.10;2.20;;;;;;;15.42;76.68;98899.23;270761;1268;22512;-86
2023/06/28 17:34:42;;;;;;;10.40;3.30;;;;;;;15.36;77.07;98901.30;270414;1268;24286;-85
2023/06/28 17:40:43;;;;;;;6.20;4.30;;;;;;;15.28;77.78;98904.14;270968;1267;22447;-85
2023/06/28 17:46:49;;;;;;;3.90;2.90;;;;;;;15.14;78.17;98902.61;273249;1268;23359;-86
2023/06/28 17:52:51;;;;;;;6.00;3.40;;;;;;;15.05;79.57;98905.11;273598;1268;22276;-85
2023/06/28 17:58:53;;;;;;;13.80;6.30;;;;;;;15.01;80.93;98903.80;273484;1258;22208;-84
2023/06/28 18:04:55;;;;;;;10.60;4.90;;;;;;;14.86;81.52;98897.63;273204;1261;22251;-86
2023/06/28 18:10:57;;;;;;;9.30;3.80;;;;;;;14.65;82.63;98894.01;271615;1268;123795;-84
2023/06/28 18:16:59;;;;;;;4.60;3.00;;;;;;;14.48;83.68;98895.85;271284;1268;25255;-87
2023/06/28 18:23:01;;;;;;;6.20;3.00;;;;;;;14.38;84.42;98889.92;273071;1264;23447;-85
2023/06/28 18:29:03;;;;;;;5.80;3.30;;;;;;;14.26;85.33;98883.92;273286;1268;24479;-84
2023/06/28 18:35:05;;;;;;;6.50;3.00;;;;;;;14.19;86.16;98886.63;273303;1268;23135;-85
2023/06/28 18:41:07;;;;;;;8.20;4.00;;;;;;;14.14;86.99;98889.79;273290;1258;23616;-85
2023/06/28 18:47:09;;;;;;;7.60;3.90;;;;;;;14.08;87.58;98898.70;272962;1268;22606;-85
2023/06/28 18:53:11;;;;;;;6.90;3.30;;;;;;;14.00;88.27;98900.00;271197;1268;22584;-85
2023/06/28 18:59:13;;;;;;;5.10;3.00;;;;;;;13.96;89.08;98904.81;271642;1268;22273;-84
2023/06/28 19:05:15;;;;;;;7.90;3.70;;;;;;;13.90;89.87;98903.97;273330;1258;22366;-85
2023/06/28 19:11:17;;;;;;;7.20;4.20;;;;;;;13.86;90.72;98904.38;273375;1268;23273;-86
2023/06/28 19:17:19;;;;;;;8.40;4.40;;;;;;;13.82;91.40;98906.35;273253;1268;22378;-85
2023/06/28 19:23:21;;;;;;;9.00;4.30;;;;;;;13.84;92.32;98908.39;273049;1260;22521;-84
2023/06/28 19:29:23;;;;;;;7.80;3.70;;;;;;;13.80;92.41;98910.14;273887;1257;22923;-86
2023/06/28 19:35:25;;;;;;;12.70;5.00;;;;;;;13.75;93.14;98911.41;272668;1259;23823;-86
2023/06/28 19:41:28;;;;;;;10.50;6.10;;;;;;;13.76;93.94;98912.75;272831;1256;22398;-87
2023/06/28 19:47:31;;;;;;;15.30;9.50;;;;;;;13.74;94.06;98911.02;273401;1268;23156;-85
2023/06/28 19:53:33;;;;;;;13.10;8.10;;;;;;;13.69;94.66;98905.21;273427;1265;23128;-85
2023/06/28 19:59:37;;;;;;;11.90;5.90;;;;;;;13.64;94.97;98913.32;272704;1268;22475;-85
2023/06/28 20:05:39;;;;;;;10.90;6.30;;;;;;;13.59;95.79;98911.98;269915;1256;22203;-85
2023/06/28 20:11:41;;;;;;;15.70;7.00;;;;;;;13.58;96.51;98917.34;270438;1268;22557;-83
2023/06/28 20:17:43;;;;;;;14.20;9.00;;;;;;;13.58;97.46;98919.70;270116;1264;22579;-84
2023/06/28 20:23:44;;;;;;;11.00;6.20;;;;;;;13.57;98.08;98918.38;270108;1269;22585;-86
2023/06/28 20:29:46;;;;;;;10.50;5.00;;;;;;;13.55;98.67;98917.20;271195;1268;22198;-84
2023/06/28 20:35:48;;;;;;;12.80;5.20;;;;;;;13.49;99.04;98918.07;270688;1268;22507;-84
2023/06/28 20:41:50;;;;;;;10.20;5.10;;;;;;;13.48;99.76;98916.66;269672;1259;22542;-84
2023/06/28 20:47:54;;;;;;;8.80;5.50;;;;;;;13.49;99.95;98919.89;269821;1266;23866;-84
2023/06/28 20:53:56;;;;;;;11.40;5.60;;;;;;;13.50;100.00;98922.71;269521;1268;22536;-84
2023/06/28 21:00:00;;;;;;;8.30;4.70;;;;;;;13.51;100.00;98920.98;269315;1269;22556;-84
2023/06/28 21:06:03;;;;;;;7.10;4.60;;;;;;;13.51;100.00;98919.64;269398;1264;22450;-84
2023/06/28 21:12:05;;;;;;;5.60;4.40;;;;;;;13.51;100.00;98920.98;269521;1266;22663;-86
2023/06/28 21:18:07;;;;;;;12.50;5.30;;;;;;;13.52;100.00;98916.27;269471;1268;22522;-85
2023/06/28 21:24:09;;;;;;;7.80;4.80;;;;;;;13.53;100.00;98914.69;269425;1261;25172;-84
2023/06/28 21:30:12;;;;;;;8.90;5.40;;;;;;;13.54;100.00;98916.10;269475;1268;25508;-83
2023/06/28 21:36:14;;;;;;;7.90;5.30;;;;;;;13.57;100.00;98919.08;270138;1267;22245;-84
2023/06/28 21:42:15;;;;;;;8.80;6.00;;;;;;;13.59;100.00;98923.63;269430;1267;22575;-84
2023/06/28 21:48:17;;;;;;;10.90;6.10;;;;;;;13.59;100.00;98922.69;271459;1255;22393;-85
2023/06/28 21:54:19;;;;;;;10.10;5.90;;;;;;;13.61;100.00;98927.31;271477;1268;22597;-85
2023/06/28 22:00:24;;;;;;;9.10;5.70;;;;;;;13.63;100.00;98924.40;269586;1269;22562;-84
2023/06/28 22:06:25;;;;;;;9.50;6.00;;;;;;;13.68;100.00;98924.23;270687;1270;22193;-84
2023/06/28 22:12:27;;;;;;;9.50;5.50;;;;;;;13.70;100.00;98924.30;273461;1259;22220;-84
2023/06/28 22:18:29;;;;;;;9.50;5.50;;;;;;;13.71;100.00;98919.20;273358;1269;22982;-84
2023/06/28 22:24:32;;;;;;;8.90;5.20;;;;;;;13.74;100.00;98919.02;273455;1254;22585;-84
2023/06/28 22:30:33;;;;;;;9.20;5.80;;;;;;;13.76;100.00;98918.25;272285;1267;22633;-83
2023/06/28 22:36:36;;;;;;;12.20;5.90;;;;;;;13.81;100.00;98922.95;269827;1260;25617;-86
2023/06/28 22:42:38;;;;;;;9.40;5.80;;;;;;;13.81;100.00;98924.13;270901;1267;22581;-83
2023/06/28 22:48:40;;;;;;;10.30;6.60;;;;;;;13.82;100.00;98922.48;272461;1270;22180;-84
2023/06/28 22:54:42;;;;;;;11.00;6.30;;;;;;;13.82;100.00;98921.59;270368;1270;23006;-84
2023/06/28 23:00:44;;;;;;;9.20;6.20;;;;;;;13.83;100.00;98924.42;269537;1267;23395;-84
2023/06/28 23:06:48;;;;;;;8.90;6.10;;;;;;;13.83;100.00;98926.31;270349;1257;22662;-82
2023/06/28 23:12:52;;;;;;;7.00;5.50;;;;;;;13.85;100.00;98926.85;270048;1269;24333;-83
2023/06/28 23:18:54;;;;;;;7.80;6.40;;;;;;;13.88;100.00;98927.80;270087;1267;22556;-84
2023/06/28 23:24:57;;;;;;;13.50;7.80;;;;;;;13.91;100.00;98928.02;270858;1267;22240;-84
2023/06/28 23:31:00;;;;;;;9.10;7.30;;;;;;;13.94;100.00;98926.35;272402;1257;22549;-83
2023/06/28 23:37:02;;;;;;;10.10;8.00;;;;;;;13.97;100.00;98923.98;270282;1264;22556;-84
2023/06/28 23:43:06;;;;;;;13.40;9.30;;;;;;;14.01;100.00;98926.27;271097;1267;22636;-85
2023/06/28 23:49:08;;;;;;;12.50;10.00;;;;;;;14.03;100.00;98929.55;270187;1267;22535;-84
2023/06/28 23:55:11;;;;;;;16.90;11.00;;;;;;;14.05;100.00;98933.08;270233;1260;22649;-84
